Tiempo atmosférico en la estación meteorológica de Reus Aeropuerto, Tarragona (71 m.)



Fecha
DESCASC
Temp. máxima en grados centígrados (hora)
DESCASC
Temp. mínima en grados centígrados (hora)
DESCASC
Temp. media en grados centígrados
DESCASC
Racha de viento máxima en m/sg (hora)
DESCASC
Velocidad máxima media en intervalos de 10 minutos(hora)
DESCASC
Precipitaciones diarias en mm
DESCASC
Precipitaciones de 00:00 a 06:00 en mm
DESCASC
Precipitaciones de 06:00 a 12:00 en mm
DESCASC
Precipitaciones de 12:00 a 18:00 en mm
DESCASC
Precipitaciones de 18:00 a 24:00 en mm
DESCASC
24-09-2020 27.9 (12:10) 16 (06:20) 21.9 13.33 (14:40) 8.06 (14:50) 0 0 0 0 0
23-09-2020 29.9 (15:10) 15.5 (00:00) 22.7 9.17 (16:40) 6.67 (16:50) 0 0 0 0 0
22-09-2020 27.3 (15:20) 15.4 (00:00) 21.3 8.33 (16:40) 5 (14:50) 0 0 0 0 0
21-09-2020 27 (14:20) 17.7 (00:00) 22.4 7.78 (14:10) 5.28 (14:40) 0 0 0 0 0
20-09-2020 29.5 (15:30) 17 (00:00) 23.3 11.67 (16:20) 8.33 (16:40) 0 0 0 0 0
19-09-2020 28 (13:20) 19.6 (00:00) 23.8 7.78 (14:10) 5 (14:10) 0 0 0 0 0
18-09-2020 24.5 (14:50) 19.9 (00:00) 22.2 8.33 (10:40) 5 (19:10) 5.7 0 4.1 1 0.6
17-09-2020 28.6 (16:50) 17.8 (00:00) 23.2 6.11 (00:20) 3.89 (17:10) 0 0 0 0 0
16-09-2020 29.4 (15:30) 18.1 (07:10) 23.8 6.67 (16:10) 4.44 (16:20) 0 0 0 0 0
15-09-2020 29.3 (15:10) 18 (00:00) 23.6 8.33 (01:10) 4.44 (15:50) 0 0 0 0 0
14-09-2020 29.7 (12:10) 15.9 (00:00) 22.8 6.67 (14:40) 4.17 (14:40) 0 0 0 0 0
13-09-2020 31.9 (13:50) 16.9 (00:00) 24.4 7.22 (15:00) 4.44 (14:30) 0 0 0 0 0
12-09-2020 31.6 (15:40) 16.6 (07:40) 24.1 7.22 (16:10) 4.44 (05:00) 0 0 0 0 0
11-09-2020 31.9 (14:50) 16.2 (00:00) 24.1 7.22 (15:30) 5.28 (17:00) 0 0 0 0 0
10-09-2020 28.7 (14:40) 16.7 (00:00) 22.7 11.67 (19:10) 7.5 (19:10) 1.3 0 0 0 1.3
09-09-2020 25.5 (12:50) 17.2 (01:50) 21.4 14.44 (13:30) 6.67 (14:00) 17.9 0 0 17.9 0
08-09-2020 -- (--) -- (--) -- -- (--) -- (--) -- -- -- 0 0
07-09-2020 26.4 (15:10) 15.4 (23:20) 20.9 15 (03:30) 9.72 (03:30) 4 0 0 0 4
06-09-2020 31.3 (15:40) 18.4 (00:00) 24.8 11.67 (16:10) 7.78 (12:20) 0 0 0 0 0
05-09-2020 29.3 (14:50) 18.9 (00:00) 24.1 9.17 (13:40) 4.44 (16:00) 0 0 0 0 0
04-09-2020 29.2 (13:50) 18.1 (00:00) 23.7 8.89 (14:50) 5 (17:40) 0 0 0 0 0
03-09-2020 29.3 (12:20) 16.9 (00:00) 23.1 8.33 (16:20) 5.56 (16:50) 0 0 0 0 0
02-09-2020 28 (13:50) 17.8 (00:00) 22.9 9.17 (15:50) 6.67 (15:50) 0 0 0 0 0
01-09-2020 27.8 (15:50) 14.8 (00:00) 21.3 7.78 (13:10) 5 (15:40) 0 0 0 0 0
31-08-2020 28.4 (15:20) 15.1 (00:00) 21.8 11.67 (06:30) 8.61 (06:30) 6.5 6.5 0 0 0
30-08-2020 28.4 (16:50) 15.1 (00:00) 21.8 12.78 (02:40) 9.17 (05:40) 0 0 0 0 0
29-08-2020 26.3 (14:20) 17 (00:00) 21.6 9.72 (11:00) 7.22 (10:30) 18.8 18 0 0.8 0
28-08-2020 31.8 (15:20) 21.9 (00:00) 26.8 7.78 (11:40) 5.28 (15:50) 26.3 0 0 0 26.3
27-08-2020 31.9 (14:00) 22.3 (00:00) 27.1 6.67 (15:20) 4.17 (15:50) 0 0 0 0 0
26-08-2020 32.2 (16:00) 23.2 (00:00) 27.7 8.33 (13:40) 4.17 (13:50) 0 0 0 0 0

Gráficas

Temp. máximas Temp. mínimas Temp. medias Precipitaciones Rachas de viento máximas Velocidades máximas media en intervalos de 10 minutos

Datos horarios

Fecha y hora oficial Temperatura (ºC) Velocidad del viento (km/h) Dirección del viento Racha (km/h) Dirección de racha Precipitación (mm) Presión (hPa) Tendencia (hPa) Humedad (%)
2020-09-24 23:00:00 18.1 7 Norte 18 Norte 0 1001.6 0.2 81
2020-09-24 22:00:00 18.9 3 Este 13 Norte 0 1001.9 0.8 79
2020-09-24 21:00:00 20.1 6 Norte 13 Norte 0 1001.7 -- 75
2020-09-24 20:00:00 21.6 11 Sudoeste 18 Sur 0 1001.4 -- 71
2020-09-24 19:00:00 22.4 6 Sudoeste 18 Sudoeste 0 1001.1 -- 67
2020-09-24 18:00:00 23.9 15 Sudoeste 21 Sudoeste 0 1001.3 -- 59
2020-09-24 17:00:00 22.9 13 Sudoeste 32 Sudoeste 0 1001.8 -- 73
2020-09-24 16:00:00 22.1 22 Sur 33 Sudoeste 0 1002.3 -- 73
2020-09-24 15:00:00 25.4 27 Oeste 48 Oeste 0 1002.3 -- 45
2020-09-24 14:00:00 26.9 24 Oeste 35 Oeste 0 1002.2 -- 38
2020-09-24 13:00:00 27.4 17 Oeste 35 Oeste 0 1002.3 -- 38
2020-09-24 12:00:00 27.4 27 Oeste 41 Oeste 0 1003 -- 38
2020-09-24 11:00:00 26.2 18 Oeste 28 Oeste 0 1003.3 -- 44
2020-09-24 10:00:00 24.3 15 Sudoeste 26 Oeste 0 1003.1 -- 50
2020-09-24 09:00:00 21.1 6 Este 22 Oeste 0 1002.9 -- 69
2020-09-24 08:00:00 17.1 4 Norte 13 Norte 0 1002.6 -- 80
2020-09-24 07:00:00 16.8 6 Nordeste 15 Nordeste 0 1002.6 -- 81
2020-09-24 06:00:00 17.1 7 Norte 11 Norte 0 1002.4 -- 80
2020-09-24 05:00:00 17.5 4 Noroeste 15 Norte 0 1002.4 -- 79
2020-09-24 04:00:00 17.6 12 Norte 17 Norte 0 1002.6 -- 79
2020-09-24 03:00:00 18.6 5 Norte 9 Norte 0 1002.9 -- 76
2020-09-24 02:00:00 19.7 2 Norte 13 Norte 0 1003 -- 71
2020-09-24 01:00:00 21.6 4 Norte 26 Oeste 0 1003.1 -- 67
2020-09-24 00:00:00 21.3 10 Oeste 18 Oeste 0 1003 -- 68
2020-09-23 23:00:00 20.5 9 Norte 11 Norte 0 1003 -- 79
2020-09-23 22:00:00 20.7 6 Nordeste 22 Oeste 0 1002.6 -- 77
2020-09-23 21:00:00 21.1 10 Oeste 15 Sudoeste 0 1002.1 -- 81
2020-09-23 20:00:00 22.6 10 Sudoeste 17 Sudoeste 0 1001.5 -- 72
2020-09-23 19:00:00 24.5 12 Sudoeste 21 Sudoeste 0 1001.4 -- 61
2020-09-23 18:00:00 23.9 11 Sudoeste 33 Sur 0 1001.8 -- 65
2020-09-23 17:00:00 25.3 24 Sur 33 Sudoeste 0 1001.6 -- 60
2020-09-23 16:00:00 26.9 15 Sur 26 Sudoeste 0 1001.4 -- 45
2020-09-23 15:00:00 29 14 Sur 24 Sur 0 1001.5 -- 39
2020-09-23 14:00:00 27.9 15 Sudoeste 28 Sudoeste 0 1002.4 -- 40
2020-09-23 13:00:00 27.5 15 Sudoeste 26 Sudoeste 0 1003.1 -- 41
2020-09-23 12:00:00 26.2 9 Sur 17 Sur 0 1003.6 -- 49
2020-09-23 11:00:00 24.4 6 Sur 13 Sur 0 1003.6 -- 57
2020-09-23 10:00:00 22.2 9 Nordeste 11 Nordeste 0 1003.1 -- 62
2020-09-23 09:00:00 18.4 7 Nordeste 15 Norte 0 1003 -- 79
2020-09-23 08:00:00 15.5 6 Nordeste 15 Norte 0 1002.8 -- 87
2020-09-23 07:00:00 15.8 9 Norte 11 Norte 0 1002.9 -- 88
2020-09-23 06:00:00 16 6 Norte 11 Nordeste 0 1002.8 -- 89
2020-09-23 05:00:00 16.7 6 Norte 15 Este 0 1003 -- 87
2020-09-23 04:00:00 17.3 4 Norte 11 Norte 0 1003.1 -- 85
2020-09-23 03:00:00 18.9 9 Norte 15 Norte 0 1003.5 -- 80
2020-09-23 02:00:00 19 11 Nordeste 15 Nordeste 0 1003.6 -- 80
2020-09-23 01:00:00 18.8 8 Norte 17 Norte 0 1003.9 -- 80
2020-09-23 00:00:00 18.6 10 Norte 15 Norte 0 1004.2 -- 83
2020-09-22 23:00:00 19 5 Norte -- -- 0 1004.3 -- 82
2020-09-22 22:00:00 19.8 9 Norte 11 Norte 0 1004.1 -- 80
2020-09-22 21:00:00 20.8 6 Oeste 11 Sudoeste 0 1003.7 -- 77
2020-09-22 20:00:00 21.6 9 Sudoeste 18 Sudoeste 0 1003.4 -- 73
2020-09-22 19:00:00 23.5 14 Sur 22 Sur 0 1003.4 -- 64
2020-09-22 18:00:00 25.4 15 Sur 24 Sur 0 1003.5 -- 48
2020-09-22 17:00:00 26 16 Sur 30 Sudoeste 0 1003.8 -- 50
2020-09-22 16:00:00 26.9 15 Sur 26 Sur 0 1004.3 -- 46
2020-09-22 15:00:00 26.7 15 Sudeste 28 Sudeste 0 1004.7 -- 48
2020-09-22 14:00:00 26.5 14 Sur 26 Sudeste 0 1005.2 -- 48
2020-09-22 13:00:00 25.7 12 Sudeste 21 Sudeste 0 1005.8 -- 54
2020-09-22 12:00:00 25.4 7 Sudeste 15 Sur 0 1006.2 -- 54
2020-09-22 11:00:00 23.9 7 Nordeste 13 Este 0 1006.3 -- 60
2020-09-22 10:00:00 21.9 3 Oeste 9 Noroeste 0 1006 -- 61
2020-09-22 09:00:00 18.9 2 Norte 21 Noroeste 0 1006 -- 77
2020-09-22 08:00:00 16.3 12 Noroeste 21 Norte 0 1006 -- 89
2020-09-22 07:00:00 15.6 0 Calma 13 Este 0 1005.7 -- 91
2020-09-22 06:00:00 17.6 8 Nordeste 13 Nordeste 0 1005.5 -- 80
2020-09-22 05:00:00 17 4 Norte 11 Noroeste 0 1005.9 -- 90
2020-09-22 04:00:00 17.4 4 Noroeste 13 Noroeste 0 1006.3 -- 89
2020-09-22 03:00:00 18.2 11 Norte 11 Norte 0 1006.6 -- 87
2020-09-22 02:00:00 18.9 8 Norte 17 Norte 0 1006.9 -- 82
2020-09-22 01:00:00 18.8 10 Norte 13 Norte 0 1007.2 -- 82
2020-09-22 00:00:00 18.9 10 Norte 22 Norte 0 1007.2 -- 81
2020-09-21 23:00:00 18.9 12 Norte 15 Norte 0 1007.3 -- 83
2020-09-21 22:00:00 18.8 10 Nordeste 15 Nordeste 0 1007.1 -- 83
2020-09-21 21:00:00 20.3 9 Nordeste 17 Nordeste 0 1006.7 -- 76
2020-09-21 20:00:00 21.5 13 Norte 17 Noroeste 0 1006.8 -- 70
2020-09-21 19:00:00 21.3 12 Nordeste 26 Nordeste 0 1006.5 -- 67
2020-09-21 18:00:00 24.8 13 Sudeste 26 Este 0 1006.1 -- 62
2020-09-21 17:00:00 25.1 17 Sudeste 28 Sudeste 0 1006.1 -- 65
2020-09-21 16:00:00 26.3 16 Este 26 Sudeste 0 1006.2 -- 58
2020-09-21 15:00:00 26.3 17 Este 28 Sudeste 0 1006.5 -- 53
2020-09-21 14:00:00 26.4 17 Sudeste 26 Sudeste 0 1007.1 -- 53
2020-09-21 13:00:00 26.4 5 Sudeste 13 Sudeste 0 1007.4 -- 47
2020-09-21 12:00:00 24.1 2 Este 13 Este 0 1007.7 -- 58
2020-09-21 11:00:00 21.9 9 Nordeste 13 Nordeste 0 1007.6 -- 71
2020-09-21 10:00:00 20.6 0 Calma 5 Este 0 1007.2 -- 79
2020-09-21 09:00:00 18.8 0 Calma 8 Este 0 1006.9 -- 87
2020-09-21 08:00:00 17.7 0 Calma 5 Norte 0 1006.5 -- 90
2020-09-21 07:00:00 17.9 0 Calma 13 Norte 0 1006 -- 88
2020-09-21 06:00:00 18.4 7 Norte 11 Norte 0 1006.1 -- 90
2020-09-21 05:00:00 18.5 0 Calma 15 Sudoeste 0 1006.2 -- 88
2020-09-21 04:00:00 18.8 3 Nordeste 11 Nordeste 0 1006.1 -- 82
2020-09-21 03:00:00 18.9 3 Norte 15 Nordeste 0 1006.5 -- 81
2020-09-21 02:00:00 19.3 12 Norte 13 Norte 0 1006.8 -- 80
2020-09-21 01:00:00 19.6 10 Norte 17 Norte 0 1006.7 -- 82
2020-09-21 00:00:00 19.9 6 Nordeste 15 Norte 0 1006.8 -- 80
2020-09-20 23:00:00 20.5 9 Noroeste 13 Norte 0 1006.7 -- 81
2020-09-20 22:00:00 21.5 6 Noroeste 18 Noroeste 0 1006.6 -- 77
2020-09-20 21:00:00 22.1 10 Sudoeste 18 Sudoeste 0 1006.1 -- 74
2020-09-20 20:00:00 23.1 11 Sudoeste 26 Sur 0 1005.7 -- 68
2020-09-20 19:00:00 25 14 Sudoeste 26 Sur 0 1005.5 -- 58
2020-09-20 18:00:00 24.3 18 Sur 39 Sur 0 1005.5 -- 52
2020-09-20 17:00:00 26.2 24 Sudoeste 42 Sur 0 1005.3 -- 49
2020-09-20 16:00:00 28.8 7 Noroeste 28 Sudoeste 0 1004.9 -- 35
2020-09-20 15:00:00 28.6 15 Oeste 28 Oeste 0 1005.4 -- 34
2020-09-20 14:00:00 27.4 5 Nordeste 24 Norte 0 1006.2 -- 43
2020-09-20 13:00:00 27.4 7 Este 21 Este 0 1006.4 -- 42
2020-09-20 12:00:00 26.3 6 Sudeste 15 Este 0 1006.8 -- 43
2020-09-20 11:00:00 25.1 9 Este 18 Nordeste 0 1006.6 -- 48
2020-09-20 10:00:00 23.1 6 Nordeste 9 Nordeste 0 1006.2 -- 56
2020-09-20 09:00:00 19.5 4 Norte 11 Norte 0 1005.9 -- 71
2020-09-20 08:00:00 17.3 7 Este 18 Sudoeste 0 1005.8 -- 77
2020-09-20 07:00:00 19.7 4 Sudoeste 22 Sudoeste 0 1005.3 -- 62
2020-09-20 06:00:00 20.3 8 Sudoeste 22 Sudoeste 0 1005.4 -- 59
2020-09-20 05:00:00 19.7 11 Sur 21 Oeste 0 1005.2 -- 63
2020-09-20 04:00:00 19.5 11 Oeste 22 Oeste 0 1005.2 -- 63
2020-09-20 03:00:00 20.3 5 Noroeste 26 Oeste 0 1005.4 -- 61
2020-09-20 02:00:00 20.8 11 Oeste 24 Oeste 0 1005.3 -- 59
2020-09-20 01:00:00 21.4 17 Oeste 28 Oeste 0 1005.3 -- 57
2020-09-20 00:00:00 21.4 11 Oeste 24 Noroeste 0 1005.4 -- 60
2020-09-19 23:00:00 20.5 7 Norte 13 Norte 0 1005 -- 76
2020-09-19 22:00:00 21.5 7 Norte 13 Norte 0 1004.8 -- 79
2020-09-19 21:00:00 22.5 9 Noroeste 11 Noroeste 0 1004.2 -- 73
2020-09-19 20:00:00 23.2 8 Sudoeste 11 Sudoeste 0 1003.7 -- 68
2020-09-19 19:00:00 25.9 7 Sudoeste 15 Sudoeste 0 1003.4 -- 55
2020-09-19 18:00:00 25.4 9 Sur 21 Sudoeste 0 1003.3 -- 59
2020-09-19 17:00:00 27.4 14 Sur 24 Sur 0 1003.3 -- 51
2020-09-19 16:00:00 27.3 17 Sur 26 Sur 0 1003.4 -- 58
2020-09-19 15:00:00 27.6 15 Sur 28 Sur 0 1004 -- 61
2020-09-19 14:00:00 27.4 18 Sur 26 Sur 0 1004.5 -- 59
2020-09-19 13:00:00 27.2 12 Sudoeste 18 Sudoeste 0 1005 -- 53
2020-09-19 12:00:00 26.9 7 Sur 15 Sur 0 1005.4 -- 65
2020-09-19 11:00:00 25.3 3 Este 11 Nordeste 0 1005.7 -- 70
2020-09-19 10:00:00 21.8 9 Norte 13 Norte 0 1005.5 -- 82
2020-09-19 09:00:00 20.4 10 Nordeste 13 Nordeste 0 1005.2 -- 91
2020-09-19 08:00:00 19.7 5 Nordeste 15 Norte 0 1004.9 -- 94
2020-09-19 07:00:00 20.1 13 Norte 21 Norte 0 1004.7 -- 91
2020-09-19 06:00:00 20.1 12 Norte 17 Norte 0 1004.9 -- 92
2020-09-19 05:00:00 20.2 8 Norte 13 Norte 0 1005.6 -- 91
2020-09-19 04:00:00 19.8 11 Norte 13 Norte 0 1006 -- 91
2020-09-19 03:00:00 20.1 11 Norte 15 Norte 0 1006.7 -- 90
2020-09-19 02:00:00 19.7 9 Nordeste 13 Norte 0 1006.9 -- 90
2020-09-19 01:00:00 20 11 Norte 13 Norte 0 1006.8 -- 88
2020-09-19 00:00:00 20.1 8 Este 18 Nordeste 0 1007.2 -- 88
2020-09-18 23:00:00 20.6 13 Nordeste 30 Este 0 1006.6 -- 83
2020-09-18 22:00:00 21.7 10 Nordeste 17 Nordeste 0 1006.8 -- 88
2020-09-18 21:00:00 21.8 11 Nordeste 22 Sudeste 0 1006.4 -- 88
2020-09-18 20:00:00 21.8 12 Este 28 Sudeste 0.6 1006.2 -- 87
2020-09-18 19:00:00 22.2 14 Este 24 Este 0 1005.8 -- 81
2020-09-18 18:00:00 23 6 Este 15 Este 0 1006.5 -- 75
2020-09-18 17:00:00 24 10 Este 15 Este 0 1006.7 -- 74
2020-09-18 16:00:00 23.9 9 Este 15 Este 0 1007.1 -- 74
2020-09-18 15:00:00 24.2 10 Este 21 Este 0 1007.9 -- 68
2020-09-18 14:00:00 22.7 14 Nordeste 24 Nordeste 0 1007.9 -- 83
2020-09-18 13:00:00 21.5 17 Norte 26 Nordeste 1 1008.2 -- 89
2020-09-18 12:00:00 21.5 6 Norte 21 Oeste 1.4 1009 -- 90
2020-09-18 11:00:00 21.1 10 Oeste 30 Sudoeste 2.7 1008.4 -- 90
2020-09-18 10:00:00 22.6 10 Nordeste 13 Nordeste 0 1007.5 -- 87
2020-09-18 09:00:00 22.7 9 Nordeste 11 Nordeste 0 1007.3 -- 86
2020-09-18 08:00:00 21.9 7 Norte 13 Nordeste 0 1006.8 -- 87
2020-09-18 07:00:00 21.5 9 Norte 11 Norte 0 1006.4 -- 87
2020-09-18 06:00:00 21.3 9 Norte 15 Norte 0 1006.4 -- 87
2020-09-18 05:00:00 21.1 12 Norte 17 Norte 0 1006.2 -- 84
2020-09-18 04:00:00 20.8 7 Norte 17 Norte 0 1006.3 -- 86
2020-09-18 03:00:00 20.8 13 Norte 15 Norte 0 1006.3 -- 90
2020-09-18 02:00:00 21.6 8 Norte 9 Norte 0 1006.7 -- 89
2020-09-18 01:00:00 22 -- -- -- -- 0 1007.4 -- 88
2020-09-18 00:00:00 23 6 Norte 9 Norte 0 1007.3 -- 86
2020-09-17 23:00:00 23.2 2 Nordeste 5 Nordeste 0 1007.2 -- 86
2020-09-17 22:00:00 23.2 5 Este -- -- 0 1007.1 -- 84
2020-09-17 21:00:00 23.8 4 Este 5 Nordeste 0 1006.5 -- 81
2020-09-17 20:00:00 24.5 0 Calma 9 Sudoeste 0 1006.5 -- 78
2020-09-17 19:00:00 25 5 Sudoeste 13 Sur 0 1006.5 -- 75
2020-09-17 18:00:00 26.1 9 Sur 21 Sudoeste 0 1006.6 -- 68
2020-09-17 17:00:00 28 12 Sur 18 Sur 0 1006.6 -- 60
2020-09-17 16:00:00 27.2 7 Sur 13 Sur 0 1006.7 -- 61
2020-09-17 15:00:00 27.9 8 Sur 17 Sudoeste 0 1007.2 -- 60
2020-09-17 14:00:00 25.4 7 Sur 15 Sur 0 1007.7 -- 74
2020-09-17 13:00:00 25.6 8 Sur 15 Sur 0 1007.6 -- 70
2020-09-17 12:00:00 25.4 6 Sur 11 Este 0 1007.8 -- 71
2020-09-17 11:00:00 23.5 3 Este 9 Este 0 1008 -- 70
2020-09-17 10:00:00 22.1 0 Calma 9 Norte 0 1007.9 -- 65
2020-09-17 09:00:00 20.1 4 Nordeste 11 Norte 0 1007.5 -- 72
2020-09-17 08:00:00 18.6 8 Norte 17 Norte 0 1007.4 -- 75
2020-09-17 07:00:00 17.9 8 Norte 9 Nordeste 0 1007.4 -- 78
2020-09-17 06:00:00 18.3 6 Norte 13 Norte 0 1007.5 -- 76
2020-09-17 05:00:00 17.9 5 Nordeste 11 Nordeste 0 1007.4 -- 82
2020-09-17 04:00:00 18.7 10 Norte 15 Norte 0 1007.7 -- 78
2020-09-17 03:00:00 18.9 6 Nordeste 11 Norte 0 1008.1 -- 85
2020-09-17 02:00:00 19.5 7 Norte 11 Norte 0 1008.5 -- 85
2020-09-17 01:00:00 20.3 8 Nordeste 22 Noroeste 0 1008.9 -- 86
2020-09-17 00:00:00 21.1 10 Norte 24 Norte 0 1009.1 -- 86
2020-09-16 23:00:00 21.8 9 Noroeste -- -- 0 1009.1 -- 85
2020-09-16 22:00:00 22.3 0 Calma 11 Sudoeste 0 1009 -- 87
2020-09-16 21:00:00 23.3 5 Sudoeste 9 Sur 0 1008.5 -- 81
2020-09-16 20:00:00 24.4 6 Sur 13 Sur 0 1008.3 -- 75
2020-09-16 19:00:00 26.2 12 Sur 21 Sur 0 1008.3 -- 68
2020-09-16 18:00:00 27.5 13 Sur 22 Sur 0 1008.3 -- 58
2020-09-16 17:00:00 28.7 16 Sur 24 Sur 0 1008.4 -- 50
2020-09-16 16:00:00 29.2 12 Sur 22 Sudoeste 0 1008.7 -- 56
2020-09-16 15:00:00 28.7 12 Sur 22 Sur 0 1009.3 -- 62
2020-09-16 14:00:00 28.5 12 Sur 22 Sudeste 0 1009.8 -- 65
2020-09-16 13:00:00 28.3 12 Sur 18 Sur 0 1010.1 -- 63
2020-09-16 12:00:00 27.6 9 Sur 15 Sur 0 1010.4 -- 60
2020-09-16 11:00:00 26.5 6 Sur 13 Sudoeste 0 1010.6 -- 68
2020-09-16 10:00:00 24.4 7 Nordeste 15 Norte 0 1010.6 -- 68
2020-09-16 09:00:00 20.6 10 Norte 15 Norte 0 1010.5 -- 81
2020-09-16 08:00:00 18.4 10 Norte 17 Norte 0 1010.3 -- 83
2020-09-16 07:00:00 18.2 8 Nordeste 9 Nordeste 0 1010 -- 88
2020-09-16 06:00:00 18.8 6 Norte 9 Norte 0 1010.1 -- 88
2020-09-16 05:00:00 19.5 6 Norte 11 Norte 0 1010.2 -- 88
2020-09-16 04:00:00 20.2 8 Norte 13 Norte 0 1010.6 -- 87
2020-09-16 03:00:00 20.4 10 Norte 11 Norte 0 1010.8 -- 88
2020-09-16 02:00:00 20.8 6 Norte 11 Norte 0 1011.1 -- 87
2020-09-16 01:00:00 21.1 8 Norte 9 Norte 0 1011.3 -- 87
2020-09-16 00:00:00 21.9 7 Norte 11 Norte 0 1011.4 -- 85
2020-09-15 23:00:00 21.9 5 Norte 8 Norte 0 1011.4 -- 85
2020-09-15 22:00:00 22.5 3 Oeste 8 Sudoeste 0 1011.3 -- 83
2020-09-15 21:00:00 22.9 6 Sudoeste 13 Sudoeste 0 1011.1 -- 81
2020-09-15 20:00:00 24.4 9 Sudoeste 15 Sudoeste 0 1010.6 -- 74
2020-09-15 19:00:00 26.7 10 Sur 22 Sur 0 1010.2 -- 62
2020-09-15 18:00:00 28.1 13 Sur 22 Sur 0 1010.4 -- 57
2020-09-15 17:00:00 27.3 16 Sur 24 Sudoeste 0 1010.6 -- 63
2020-09-15 16:00:00 28.9 14 Sur 24 Sur 0 1011 -- 56
2020-09-15 15:00:00 29.1 12 Sur 24 Sur 0 1011.3 -- 56
2020-09-15 14:00:00 28.7 14 Sudoeste 22 Sur 0 1011.8 -- 49
2020-09-15 13:00:00 27.9 14 Sur 24 Sur 0 1012.4 -- 60
2020-09-15 12:00:00 26.3 13 Sur 18 Sur 0 1012.9 -- 66
2020-09-15 11:00:00 25.6 8 Sudoeste 13 Sur 0 1012.9 -- 70
2020-09-15 10:00:00 24.4 0 Calma 8 Sudeste 0 1012.4 -- 72
2020-09-15 09:00:00 22.4 0 Calma 9 Sudoeste 0 1012.1 -- 76
2020-09-15 08:00:00 20 9 Norte 21 Norte 0 1012 -- 81
2020-09-15 07:00:00 19.2 12 Norte 18 Norte 0 1011.4 -- 86
2020-09-15 06:00:00 18.7 12 Norte 15 Norte 0 1011.8 -- 87
2020-09-15 05:00:00 18.4 7 Norte 11 Norte 0 1012.6 -- 84
2020-09-15 04:00:00 18.7 10 Norte 13 Norte 0 1013.1 -- 83
2020-09-15 03:00:00 19 6 Nordeste 13 Norte 0 1013.5 -- 84
2020-09-15 02:00:00 19.6 10 Norte 30 Norte 0 1013.8 -- 85
2020-09-15 01:00:00 20 11 Norte 13 Norte 0 1013.7 -- 82
2020-09-15 00:00:00 20.5 11 Norte 17 Norte 0 1013.4 -- 83
2020-09-14 23:00:00 21.1 9 Norte 11 Norte 0 1013.3 -- 83
2020-09-14 22:00:00 22.2 5 Norte 13 Norte 0 1013.3 -- 83
2020-09-14 21:00:00 22.6 3 Sur 9 Sudeste 0 1012.8 -- 79
2020-09-14 20:00:00 24.5 7 Sudeste 9 Sur 0 1012.5 -- 72
2020-09-14 19:00:00 26 7 Sudeste 13 Sudeste 0 1012.7 -- 63
2020-09-14 18:00:00 27.6 9 Sur 18 Sur 0 1012.9 -- 54
2020-09-14 17:00:00 28.6 14 Sudeste 21 Sur 0 1013.1 -- 50
2020-09-14 16:00:00 29.4 13 Sur 21 Sur 0 1013.5 -- 46
2020-09-14 15:00:00 29 10 Sur 24 Sur 0 1014 -- 47
2020-09-14 14:00:00 29.3 11 Sudeste 18 Sudeste 0 1014.3 -- 45
2020-09-14 13:00:00 29.4 12 Sudeste 18 Sudeste 0 1014.5 -- 46
2020-09-14 12:00:00 29.5 7 Sudeste 15 Sur 0 1014.9 -- 37
2020-09-14 11:00:00 28 5 Este 11 Este 0 1014.9 -- 39
2020-09-14 10:00:00 25 7 Nordeste 11 Nordeste 0 1014.7 -- 49
2020-09-14 09:00:00 20.3 10 Norte 13 Norte 0 1014.6 -- 61
2020-09-14 08:00:00 16.5 9 Norte 11 Nordeste 0 1014.3 -- 78
2020-09-14 07:00:00 16.5 7 Nordeste 11 Norte 0 1013.8 -- 77
2020-09-14 06:00:00 16.9 5 Norte 9 Norte 0 1013.8 -- 78
2020-09-14 05:00:00 17.8 6 Nordeste 15 Norte 0 1013.8 -- 74
2020-09-14 04:00:00 18.4 13 Norte 15 Norte 0 1014.1 -- 71
2020-09-14 03:00:00 18.7 12 Norte 15 Norte 0 1014.4 -- 70
2020-09-14 02:00:00 18.6 7 Norte 15 Norte 0 1014.7 -- 73
2020-09-14 01:00:00 19.3 7 Nordeste 11 Norte 0 1014.6 -- 75
2020-09-14 00:00:00 20.6 9 Norte 13 Norte 0 1014.6 -- 73
2020-09-13 23:00:00 21.2 9 Norte 13 Norte 0 1014.7 -- 76
2020-09-13 22:00:00 22.3 0 Calma -- -- 0 1014.3 -- 78
2020-09-13 21:00:00 23 6 Sudoeste 11 Sudoeste 0 1013.8 -- 70
2020-09-13 20:00:00 25.8 9 Sudoeste 11 Sudoeste 0 1013.5 -- 56
2020-09-13 19:00:00 28.2 9 Sur 13 Sur 0 1013.4 -- 46
2020-09-13 18:00:00 29.4 9 Sudeste 17 Sur 0 1013.3 -- 40
2020-09-13 17:00:00 29.8 12 Sudeste 21 Sur 0 1013.5 -- 41
2020-09-13 16:00:00 30.1 11 Sudeste 22 Sur 0 1013.8 -- 40
2020-09-13 15:00:00 30.1 16 Sudeste 26 Sudeste 0 1013.9 -- 46
2020-09-13 14:00:00 31.8 13 Sur 18 Sur 0 1013.7 -- 38
2020-09-13 13:00:00 31.4 11 Sur 17 Sudoeste 0 1014.1 -- 35
2020-09-13 12:00:00 30.3 7 Sur 13 Sur 0 1014.3 -- 37
2020-09-13 11:00:00 28.5 5 Sur 9 Sur 0 1014.2 -- 39
2020-09-13 10:00:00 25.8 0 Calma 5 Nordeste 0 1013.7 -- 48
2020-09-13 09:00:00 21.5 4 Norte 9 Norte 0 1013.2 -- 65
2020-09-13 08:00:00 17.7 5 Nordeste 8 Norte 0 1012.7 -- 79
2020-09-13 07:00:00 17.3 0 Calma 13 Nordeste 0 1012.1 -- 78
2020-09-13 06:00:00 17.8 7 Norte 9 Norte 0 1011.9 -- 77
2020-09-13 05:00:00 18.3 4 Nordeste 11 Norte 0 1011.9 -- 73
2020-09-13 04:00:00 18.4 10 Norte 13 Norte 0 1011.9 -- 75
2020-09-13 03:00:00 18.8 7 Norte 13 Norte 0 1012.1 -- 74
2020-09-13 02:00:00 19 6 Norte 11 Norte 0 1012.4 -- 74
2020-09-13 01:00:00 -- 11 Norte 21 Norte 0 1012.5 -- --
2020-09-13 00:00:00 20.5 11 Norte 18 Norte 0 1012.5 -- 72
2020-09-12 23:00:00 20.9 10 Norte -- -- 0 1012.2 -- 77
2020-09-12 22:00:00 21.6 -- -- -- -- 0 1011.5 -- 79
2020-09-12 21:00:00 23.5 -- -- -- -- 0 1010.5 -- 69
2020-09-12 20:00:00 26 4 Sudoeste 15 Sudoeste 0 1010 -- 59
2020-09-12 19:00:00 28.6 10 Sudoeste 17 Sudoeste 0 1009.7 -- 39
2020-09-12 18:00:00 30 12 Sudoeste 18 Sudoeste 0 1009.3 -- 36
2020-09-12 17:00:00 30.5 13 Sudoeste 26 Sur 0 1009.2 -- 36
2020-09-12 16:00:00 31.3 14 Sur 24 Sur 0 1009.2 -- 32
2020-09-12 15:00:00 31.4 14 Sudeste 24 Sudeste 0 1009.3 -- 32
2020-09-12 14:00:00 31.1 12 Sur 18 Sur 0 1009.4 -- 39
2020-09-12 13:00:00 31 9 Sur 15 Sudeste 0 1009.5 -- 37
2020-09-12 12:00:00 29.7 7 Sur 13 Sudeste 0 1009.5 -- 39
2020-09-12 11:00:00 27.6 4 Sur 9 Oeste 0 1009.3 -- 52
2020-09-12 10:00:00 24.7 3 Sudoeste 13 Nordeste 0 1008.8 -- 65
2020-09-12 09:00:00 20.8 5 Nordeste 9 Este 0 1008.5 -- 69
2020-09-12 08:00:00 16.9 5 Norte 11 Nordeste 0 1008 -- 78
2020-09-12 07:00:00 17.1 5 Norte 15 Nordeste 0 1007.5 -- 76
2020-09-12 06:00:00 17.7 10 Norte 21 Norte 0 1007.4 -- 74
2020-09-12 05:00:00 18.3 16 Norte 21 Norte 0 1007.3 -- 76
2020-09-12 04:00:00 18 12 Norte 15 Norte 0 1007.1 -- 84
2020-09-12 03:00:00 19.1 2 Norte 15 Noroeste 0 1007.1 -- 81
2020-09-12 02:00:00 19.1 11 Noroeste 15 Norte 0 1007.2 -- 79
2020-09-12 01:00:00 19.3 11 Norte 13 Norte 0 1007.3 -- 80
2020-09-12 00:00:00 20.1 12 Norte 21 Norte 0 1007.5 -- 76
2020-09-11 23:00:00 -- -- -- -- -- -- -- -- --
2020-09-11 22:00:00 21.5 8 Norte 9 Norte 0 1007.2 -- 81
2020-09-11 21:00:00 22.7 0 Calma 11 Sur 0 1006.2 -- 76
2020-09-11 20:00:00 24.8 8 Sur 17 Sur 0 1005.6 -- 63
2020-09-11 19:00:00 26.7 10 Sudoeste 21 Sur 0 1005.3 -- 54
2020-09-11 18:00:00 27.7 14 Sur 26 Sudoeste 0 1005 -- 53
2020-09-11 17:00:00 29.5 19 Sudoeste 26 Sur 0 1004.8 -- 41
2020-09-11 16:00:00 30.4 17 Sudeste 26 Sur 0 1004.5 -- 39
2020-09-11 15:00:00 31.6 17 Sur 24 Sur 0 1004.6 -- 31
2020-09-11 14:00:00 31.1 14 Sur 21 Sur 0 1004.8 -- 33
2020-09-11 13:00:00 31.2 8 Sudoeste 22 Sudoeste 0 1005.2 -- 30
2020-09-11 12:00:00 29.6 9 Sudoeste 24 Oeste 0 1005.3 -- 37
2020-09-11 11:00:00 27 15 Oeste 22 Oeste 0 1005.6 -- 44
2020-09-11 10:00:00 24.1 0 Calma 9 Este 0 1005.3 -- 59
2020-09-11 09:00:00 19.9 2 Noroeste 11 Nordeste 0 1005.4 -- 78
2020-09-11 08:00:00 16.2 4 Norte 9 Noroeste 0 1005.1 -- 90
2020-09-11 07:00:00 16.6 0 Calma 9 Nordeste 0 1005.1 -- 89
2020-09-11 06:00:00 17.3 4 Norte 9 Oeste 0 1005 -- 88
2020-09-11 05:00:00 18.2 3 Norte 13 Nordeste 0 1005 -- 85
2020-09-11 04:00:00 19.3 6 Nordeste 9 Nordeste 0 1005.3 -- 87
2020-09-11 03:00:00 19.7 5 Noroeste 8 Noroeste 0 1005.8 -- 86
2020-09-11 02:00:00 19.8 6 Norte 13 Norte 0 1006.5 -- 84
2020-09-11 01:00:00 20 9 Nordeste 11 Nordeste 0 1006.9 -- 88
2020-09-11 00:00:00 20.5 0 Calma 11 Oeste 0 1007.2 -- 88
2020-09-10 23:00:00 20.2 12 Oeste 15 Oeste 0 1007.4 -- 88
2020-09-10 22:00:00 19.7 10 Oeste 13 Oeste 0 1008 -- 86
2020-09-10 21:00:00 19.3 12 Norte 17 Norte 0 1007.8 -- 85
2020-09-10 20:00:00 19.7 13 Noroeste 42 Nordeste 1.3 1007.3 -- 84
2020-09-10 19:00:00 25.1 13 Este 28 Sur 0 1008 -- 61
2020-09-10 18:00:00 26.6 18 Sudoeste 28 Sur 0 1006.4 -- 56
2020-09-10 17:00:00 27.3 19 Sur 28 Sur 0 1006.8 -- 52
2020-09-10 16:00:00 27.9 19 Sur 28 Sur 0 1007.3 -- 48
2020-09-10 15:00:00 28.1 16 Sur 28 Sudoeste 0 1007.8 -- 47
2020-09-10 14:00:00 28.1 15 Sur 30 Sur 0 1008.3 -- 45
2020-09-10 13:00:00 27.6 20 Sur 32 Sur 0 1008.9 -- 46
2020-09-10 12:00:00 27.2 18 Sudoeste 30 Sudoeste 0 1008.9 -- 44
2020-09-10 11:00:00 25.8 14 Sudoeste 22 Sudoeste 0 1009.4 -- 51
2020-09-10 10:00:00 23.6 0 Calma 11 Nordeste 0 1009.4 -- 61
2020-09-10 09:00:00 20.5 6 Nordeste 11 Nordeste 0 1009.4 -- 75
2020-09-10 08:00:00 17.4 6 Norte 13 Este 0 1009.6 -- 89
2020-09-10 07:00:00 17.5 8 Norte 13 Norte 0 1009.7 -- 88
2020-09-10 06:00:00 17.4 9 Nordeste 15 Norte 0 1009.9 -- 88
2020-09-10 05:00:00 17.5 10 Este 13 Nordeste 0 1009.9 -- 89
2020-09-10 04:00:00 17.4 12 Norte 17 Norte 0 1010 -- 88
2020-09-10 03:00:00 17 6 Norte 11 Nordeste 0 1010.3 -- 92
2020-09-10 02:00:00 17.4 6 Nordeste 11 Norte 0 1010.6 -- 90
2020-09-10 01:00:00 18.4 4 Norte 9 Noroeste 0 1010.9 -- 90
2020-09-10 00:00:00 18.6 5 Nordeste 9 Nordeste 0 1011.7 -- 90
2020-09-09 23:00:00 19 2 Nordeste 17 Norte 0 1011.7 -- 87
2020-09-09 22:00:00 19.4 13 Norte 32 Norte 0 1011.5 -- 80
2020-09-09 21:00:00 19.4 16 Norte 26 Norte 0 1011.1 -- 83
2020-09-09 20:00:00 20 12 Norte 24 Nordeste 0 1010.9 -- 85
2020-09-09 19:00:00 20.7 14 Norte 24 Nordeste 0 1010.8 -- 82
2020-09-09 18:00:00 21 12 Nordeste 21 Nordeste 0 1010.9 -- 83
2020-09-09 17:00:00 20.3 12 Nordeste 26 Nordeste 0 1011.2 -- 84
2020-09-09 16:00:00 21.3 9 Este 15 Este 0.4 1011.4 -- 81
2020-09-09 15:00:00 20 6 Norte 28 Norte 2.4 1011.7 -- 86
2020-09-09 14:00:00 17.8 24 Nordeste 52 Este 15.1 1012.1 -- 94
2020-09-09 13:00:00 24.5 12 Este 26 Nordeste 0 1012.1 -- 55
2020-09-09 12:00:00 23.3 18 Nordeste 26 Nordeste 0 1012.6 -- 57
2020-09-09 11:00:00 22.6 15 Nordeste 21 Nordeste 0 1012.8 -- 59
2020-09-09 10:00:00 22.8 13 Nordeste 18 Nordeste 0 1012.3 -- 59
2020-09-09 09:00:00 20.2 10 Nordeste 15 Nordeste 0 1011.9 -- 68
2020-09-09 08:00:00 19 2 Norte 13 Norte 0 1012 -- 71
2020-09-09 07:00:00 19.2 11 Norte 18 Norte 0 1011.6 -- 72
2020-09-09 06:00:00 19 13 Norte 21 Nordeste 0 1012 -- 70
2020-09-09 05:00:00 18.7 19 Nordeste 24 Norte 0 1012 -- 70
2020-09-09 04:00:00 19 8 Nordeste 15 Norte 0 1012.1 -- 73
2020-09-09 03:00:00 18.1 8 Nordeste -- -- -- 1012.2 -- 76
2020-09-09 02:00:00 17.6 8 Norte 13 Norte 0 1012.6 -- 75
2020-09-09 01:00:00 17.8 7 Nordeste 13 Nordeste 0 1013.3 -- 74
2020-09-09 00:00:00 19.6 11 Norte 22 Nordeste 0 1013.3 -- 64
2020-09-08 23:00:00 20.6 14 Norte 26 Norte 0 1013.5 -- 59
2020-09-08 22:00:00 21.4 13 Nordeste 28 Nordeste 0 1013.6 -- 59
2020-09-08 21:00:00 22 13 Norte 22 Norte 0 1013 -- 60
2020-09-08 20:00:00 23.2 7 Nordeste 13 Este 0 1012.7 -- 60
2020-09-08 19:00:00 25.5 11 Este 24 Este 0 1012.8 -- 51
2020-09-08 18:00:00 25 3 Este 17 Este 0 1013.1 -- 45
2020-09-08 17:00:00 25 10 Sudeste 18 Sudeste 0 1013.1 -- 43
2020-09-08 16:00:00 25 13 Sudeste 24 Sur 0 1013.1 -- 39
2020-09-08 15:00:00 26.9 15 Sudeste 28 Sudeste 0 1013 -- 34
2020-09-08 14:00:00 27.9 11 Nordeste 24 Nordeste 0 1013.4 -- 31
2020-09-08 13:00:00 25.5 14 Nordeste 22 Nordeste -- 1013.9 -- 34
2020-09-08 12:00:00 -- -- -- -- -- -- -- -- --
2020-09-08 11:00:00 -- -- -- -- -- -- -- -- --
2020-09-08 10:00:00 -- -- -- -- -- -- -- -- --
2020-09-08 09:00:00 -- -- -- -- -- -- -- -- --
2020-09-08 08:00:00 -- -- -- -- -- -- -- -- --
2020-09-08 07:00:00 -- -- -- -- -- -- -- -- --
2020-09-08 06:00:00 -- -- -- -- -- -- -- -- --
2020-09-08 05:00:00 -- -- -- -- -- -- -- -- --
2020-09-08 04:00:00 -- -- -- -- -- -- -- -- --
2020-09-08 03:00:00 15.1 3 Nordeste 9 Este 0 1013 -- 90
2020-09-08 02:00:00 16.4 5 Oeste 21 Oeste 0 1013.1 -- 80
2020-09-08 01:00:00 16.2 15 Sudoeste 18 Sudoeste 0 1013.4 -- 88
2020-09-08 00:00:00 16.1 8 Norte 45 Nordeste 4 1014.1 -- 90
2020-09-07 23:00:00 17.4 24 Este 45 Este 0 1013.1 -- 74
2020-09-07 22:00:00 21 9 Sur 18 Sur 0 1012.2 -- 64
2020-09-07 21:00:00 21.2 14 Sur 21 Sudoeste 0 1011 -- 60
2020-09-07 20:00:00 22 11 Sur 24 Sur 0 1010.2 -- 60
2020-09-07 19:00:00 23.6 16 Sur 24 Sudoeste 0 1009.5 -- 53
2020-09-07 18:00:00 24.5 17 Sur 30 Sur 0 1009.1 -- 47
2020-09-07 17:00:00 25.3 17 Sur 32 Sur 0 1009 -- 41
2020-09-07 16:00:00 25.5 17 Sur 33 Sudeste 0 1009.1 -- 39
2020-09-07 15:00:00 26 14 Sur 22 Sur 0 1009.6 -- 38
2020-09-07 14:00:00 23.5 13 Sur 24 Oeste 0 1009.9 -- 39
2020-09-07 13:00:00 23.7 13 Sudoeste 22 Oeste 0 1010.1 -- 35
2020-09-07 12:00:00 21.3 14 Oeste 24 Oeste 0 1010.5 -- 41
2020-09-07 11:00:00 21.5 14 Oeste 26 Oeste 0 1010.1 -- 40
2020-09-07 10:00:00 18.4 15 Oeste 28 Oeste 0 1009.8 -- 49
2020-09-07 09:00:00 17.7 14 Noroeste 39 Oeste 0 1009.5 -- 52
2020-09-07 08:00:00 17.6 30 Oeste 42 Oeste 0 1009 -- 51
2020-09-07 07:00:00 17.9 25 Oeste 39 Oeste 0 1008.1 -- 54
2020-09-07 06:00:00 18.7 26 Oeste 39 Oeste 0 1007.7 -- 49
2020-09-07 05:00:00 19.1 22 Noroeste 42 Oeste 0 1007.8 -- 49
2020-09-07 04:00:00 19.5 22 Noroeste 54 Oeste 0 1007.6 -- 46
2020-09-07 03:00:00 19.6 31 Noroeste 48 Noroeste 0 1007.2 -- 46
2020-09-07 02:00:00 20.8 17 Oeste 41 Oeste 0 1007 -- 43
2020-09-07 01:00:00 22.2 27 Oeste 39 Oeste 0 1007.3 -- 39
2020-09-07 00:00:00 23.5 20 Oeste 30 Oeste 0 1007.2 -- 36
2020-09-06 23:00:00 23.4 14 Oeste 21 Oeste 0 1007.1 -- 45
2020-09-06 22:00:00 23.3 13 Sudoeste 26 Sudoeste 0 1006.5 -- 72
2020-09-06 21:00:00 23.8 21 Sudoeste 33 Sudoeste 0 1005.9 -- 79
2020-09-06 20:00:00 24.5 17 Sur 32 Sur 0 1005.6 -- 73
2020-09-06 19:00:00 26.1 20 Sur 35 Sur 0 1005.5 -- 63
2020-09-06 18:00:00 27.5 25 Sur 37 Sur 0 1005.5 -- 51
2020-09-06 17:00:00 28.8 23 Sur 42 Oeste 0 1005.8 -- 44
2020-09-06 16:00:00 31.3 23 Oeste 35 Oeste 0 1005.8 -- 29
2020-09-06 15:00:00 30.8 20 Oeste 33 Oeste 0 1006.4 -- 31
2020-09-06 14:00:00 28.7 15 Sudoeste 33 Oeste 0 1007 -- 35
2020-09-06 13:00:00 28.7 26 Oeste 39 Oeste 0 1007.8 -- 35
2020-09-06 12:00:00 27.3 26 Oeste 35 Oeste 0 1008 -- 38
2020-09-06 11:00:00 26.4 9 Sur 21 Sur 0 1008.2 -- 45
2020-09-06 10:00:00 24.3 6 Este 11 Nordeste 0 1008.1 -- 54
2020-09-06 09:00:00 21.6 0 Calma 9 Este 0 1008 -- 67
2020-09-06 08:00:00 19 0 Calma 17 Oeste 0 1007.9 -- 81
2020-09-06 07:00:00 19.3 12 Oeste 18 Oeste 0 1007.5 -- 69
2020-09-06 06:00:00 18.6 5 Noroeste 13 Norte 0 1007.7 -- 85
2020-09-06 05:00:00 18.9 0 Calma 8 Norte 0 1007.8 -- 82
2020-09-06 04:00:00 19.5 0 Calma 15 Oeste 0 1008.2 -- 80
2020-09-06 03:00:00 20.9 10 Oeste 22 Oeste 0 1008.3 -- 75
2020-09-06 02:00:00 20.7 7 Sudoeste 9 Sudoeste 0 1008.7 -- 82
2020-09-06 01:00:00 21.2 6 Noroeste 9 Noroeste 0 1009.1 -- 80
2020-09-06 00:00:00 21.4 8 Noroeste 9 Noroeste 0 1009.5 -- 80
2020-09-05 23:00:00 22.1 5 Noroeste 9 Oeste 0 1009.7 -- 77
2020-09-05 22:00:00 22.5 6 Sudoeste 8 Oeste 0 1009.9 -- 75
2020-09-05 21:00:00 23 7 Sudoeste 13 Sudoeste 0 1009.5 -- 74
2020-09-05 20:00:00 25.1 10 Sur 21 Sudoeste 0 1009.2 -- 67
2020-09-05 19:00:00 26.9 13 Sur 21 Sudoeste 0 1009.2 -- 59
2020-09-05 18:00:00 27.9 11 Sur 18 Sur 0 1009.1 -- 53
2020-09-05 17:00:00 28.3 13 Sudoeste 24 Sudoeste 0 1009.3 -- 54
2020-09-05 16:00:00 28.8 16 Sur 28 Sur 0 1009.7 -- 54
2020-09-05 15:00:00 29 15 Sur 26 Sur 0 1010.5 -- 53
2020-09-05 14:00:00 28.6 15 Sur 33 Sudeste 0 1010.9 -- 53
2020-09-05 13:00:00 28.5 14 Sur 24 Sudeste 0 1011.2 -- 54
2020-09-05 12:00:00 27.9 10 Sur 17 Sudeste 0 1011.8 -- 56
2020-09-05 11:00:00 27 9 Sur 15 Sur 0 1011.9 -- 59
2020-09-05 10:00:00 25.4 2 Nordeste 15 Nordeste 0 1012 -- 66
2020-09-05 09:00:00 22.7 13 Norte 17 Norte 0 1011.7 -- 73
2020-09-05 08:00:00 20.1 10 Norte 13 Norte 0 1011.6 -- 81
2020-09-05 07:00:00 19.8 8 Norte 15 Norte 0 1011.5 -- 83
2020-09-05 06:00:00 19.4 13 Norte 17 Norte 0 1011.5 -- 83
2020-09-05 05:00:00 19.1 10 Norte 13 Norte 0 1011.8 -- 82
2020-09-05 04:00:00 19.2 10 Norte 13 Norte 0 1012.3 -- 80
2020-09-05 03:00:00 19.4 12 Norte 15 Norte 0 1012.8 -- 81
2020-09-05 02:00:00 19.3 8 Nordeste 11 Nordeste 0 1013.1 -- 85
2020-09-05 01:00:00 19.6 8 Norte 9 Norte 0 1013.3 -- 85
2020-09-05 00:00:00 20.2 6 Norte 11 Norte 0 1013.5 -- 82
2020-09-04 23:00:00 21.3 7 Noroeste 9 Oeste 0 1013.5 -- 79
2020-09-04 22:00:00 21.7 8 Oeste -- -- 0 1013.4 -- 78
2020-09-04 21:00:00 22.7 8 Sudoeste 15 Sur 0 1013.1 -- 75
2020-09-04 20:00:00 24.9 10 Sudoeste 22 Sur 0 1013 -- 65
2020-09-04 19:00:00 26.7 13 Sur 24 Sur 0 1013.3 -- 55
2020-09-04 18:00:00 27.7 15 Sur 26 Sur 0 1013.7 -- 52
2020-09-04 17:00:00 28.2 14 Sur 24 Sudoeste 0 1013.8 -- 51
2020-09-04 16:00:00 28.9 15 Sur 24 Sur 0 1014.3 -- 52
2020-09-04 15:00:00 28.4 13 Sur 32 Sudeste 0 1014.9 -- 56
2020-09-04 14:00:00 28.5 14 Sur 26 Sur 0 1015.4 -- 55
2020-09-04 13:00:00 27.9 12 Sur 22 Sur 0 1016 -- 48
2020-09-04 12:00:00 27.9 11 Sur 21 Sudoeste 0 1016.2 -- 52
2020-09-04 11:00:00 26.9 11 Sur 18 Sur 0 1016.2 -- 60
2020-09-04 10:00:00 25.4 3 Nordeste 11 Este 0 1015.8 -- 63
2020-09-04 09:00:00 22.5 9 Nordeste 15 Nordeste 0 1015.3 -- 71
2020-09-04 08:00:00 19.5 10 Norte 13 Norte 0 1014.9 -- 80
2020-09-04 07:00:00 18.4 8 Norte 13 Norte 0 1014.5 -- 84
2020-09-04 06:00:00 18.9 9 Norte 13 Nordeste 0 1014.3 -- 83
2020-09-04 05:00:00 19.3 12 Norte 15 Norte 0 1014.2 -- 82
2020-09-04 04:00:00 18.9 10 Norte 15 Norte 0 1014.4 -- 84
2020-09-04 03:00:00 18.8 7 Nordeste 9 Norte 0 1014.7 -- 86
2020-09-04 02:00:00 19.5 6 Norte 21 Noroeste 0 1015 -- 83
2020-09-04 01:00:00 20.2 10 Noroeste 13 Noroeste 0 1015 -- 80
2020-09-04 00:00:00 20.6 10 Noroeste 13 Noroeste 0 1014.8 -- 79
2020-09-03 23:00:00 21.4 9 Noroeste 9 Noroeste 0 1014.8 -- 78
2020-09-03 22:00:00 21.9 6 Sudoeste 11 Sudoeste 0 1014.6 -- 77
2020-09-03 21:00:00 23 9 Sudoeste 18 Sur 0 1014 -- 72
2020-09-03 20:00:00 24.4 9 Sudoeste 18 Sur 0 1013.3 -- 71
2020-09-03 19:00:00 25.6 14 Sur 26 Sur 0 1013.2 -- 64
2020-09-03 18:00:00 26.9 18 Sur 30 Sur 0 1013 -- 58
2020-09-03 17:00:00 27.5 18 Sur 30 Sur 0 1012.9 -- 55
2020-09-03 16:00:00 28.2 18 Sur 28 Sur 0 1012.9 -- 50
2020-09-03 15:00:00 28.5 -- -- 28 Sur 0 -- -- 41
2020-09-03 14:00:00 29 17 Sur 26 Sur 0 1012.9 -- 34
2020-09-03 13:00:00 29 13 Sur 22 Sudeste 0 1012.9 -- 30
2020-09-03 12:00:00 28.7 8 Sur 17 Sur 0 1012.9 -- 31
2020-09-03 11:00:00 26.4 0 Calma 9 Este 0 1012.8 -- 40
2020-09-03 10:00:00 23.6 2 Nordeste 8 Este 0 1012.5 -- 62
2020-09-03 09:00:00 20.7 0 Calma 9 Nordeste 0 1012 -- 76
2020-09-03 08:00:00 17.5 7 Norte 9 Nordeste 0 1011.7 -- 89
2020-09-03 07:00:00 17.7 4 Norte 11 Norte 0 1011.1 -- 87
2020-09-03 06:00:00 18.2 4 Norte 8 Norte 0 1010.8 -- 85
2020-09-03 05:00:00 19.4 4 Norte 13 Norte 0 1010.6 -- 82
2020-09-03 04:00:00 19.1 10 Norte 15 Norte 0 1010.7 -- 83
2020-09-03 03:00:00 18.8 9 Norte 17 Norte 0 1010.7 -- 83
2020-09-03 02:00:00 18.6 9 Nordeste 9 Nordeste 0 1010.8 -- 84
2020-09-03 01:00:00 19.1 5 Nordeste 9 Norte 0 1010.6 -- 81
2020-09-03 00:00:00 19.9 8 Norte 11 Noroeste 0 1010.2 -- 78
2020-09-02 23:00:00 20.5 8 Norte 9 Norte 0 1010 -- 76
2020-09-02 22:00:00 21.5 5 Oeste 11 Sudoeste 0 1009.6 -- 70
2020-09-02 21:00:00 21.9 8 Sudoeste 18 Sudoeste 0 1008.6 -- 69
2020-09-02 20:00:00 23.3 12 Sudoeste 24 Sur 0 1007.9 -- 61
2020-09-02 19:00:00 25 15 Sur 26 Sudoeste 0 1007.6 -- 56
2020-09-02 18:00:00 26.2 17 Sur 30 Sur 0 1007.4 -- 51
2020-09-02 17:00:00 26.9 17 Sur 30 Sur 0 1007.3 -- 49
2020-09-02 16:00:00 26.8 23 Sur 33 Sur 0 1007 -- 45
2020-09-02 15:00:00 27.5 19 Sur 30 Sur 0 1007.1 -- 36
2020-09-02 14:00:00 27.8 13 Sur 28 Sur 0 1007.3 -- 32
2020-09-02 13:00:00 26.8 13 Sur 26 Sur 0 1007.5 -- 33
2020-09-02 12:00:00 26.1 12 Oeste 21 Oeste 0 1007.9 -- 36
2020-09-02 11:00:00 24.4 12 Oeste 30 Oeste 0 1007.8 -- 43
2020-09-02 10:00:00 22.3 21 Oeste 30 Oeste 0 1007.2 -- 47
2020-09-02 09:00:00 19.9 13 Noroeste 21 Noroeste 0 1006.9 -- 57
2020-09-02 08:00:00 18.1 6 Noroeste 18 Oeste 0 1006.8 -- 74
2020-09-02 07:00:00 18.1 12 Noroeste 17 Noroeste 0 1006.3 -- 70
2020-09-02 06:00:00 18.7 0 Calma 9 Nordeste 0 1005.8 -- 78
2020-09-02 05:00:00 19.2 5 Norte 13 Norte 0 1005.6 -- 77
2020-09-02 04:00:00 19.8 9 Norte 13 Norte 0 1005.5 -- 74
2020-09-02 03:00:00 19.5 9 Nordeste 17 Nordeste 0 1005.5 -- 72
2020-09-02 02:00:00 20.3 8 Norte 13 Norte 0 1005.2 -- 72
2020-09-02 01:00:00 20.1 8 Este 24 Este 0 1005 -- 81
2020-09-02 00:00:00 21 8 Norte 9 Norte 0 1004.4 -- 81
2020-09-01 23:00:00 21.7 0 Calma 9 Sur 0 1004.3 -- 79
2020-09-01 22:00:00 22.4 5 Noroeste 8 Noroeste 0 1003.8 -- 75
2020-09-01 21:00:00 23.1 0 Calma 17 Sur 0 1003.4 -- 71
2020-09-01 20:00:00 23.8 13 Sudoeste 17 Sudoeste 0 1003.2 -- 68
2020-09-01 19:00:00 24.5 10 Sur 17 Sur 0 1003 -- 63
2020-09-01 18:00:00 25.1 11 Sur 21 Sur 0 1003.1 -- 60
2020-09-01 17:00:00 26.4 13 Sur 24 Sur 0 1003.2 -- 54
2020-09-01 16:00:00 27.5 15 Sur 26 Sur 0 1003.6 -- 49
2020-09-01 15:00:00 26.8 16 Sudoeste 28 Sudoeste 0 1004.2 -- 50
2020-09-01 14:00:00 27.2 14 Sur 28 Sur 0 1004.7 -- 51
2020-09-01 13:00:00 26.6 13 Sur 26 Sur 0 1005.2 -- 51
2020-09-01 12:00:00 25.9 10 Sur 18 Sudeste 0 1005.8 -- 54
2020-09-01 11:00:00 25.3 6 Este 11 Sudeste 0 1005.7 -- 55
2020-09-01 10:00:00 21.4 10 Norte 17 Nordeste 0 1005.8 -- 53
2020-09-01 09:00:00 18.7 9 Nordeste 13 Nordeste 0 1005.8 -- 64
2020-09-01 08:00:00 15.9 9 Nordeste 13 Norte 0 1005.6 -- 75
2020-09-01 07:00:00 15.3 8 Norte 15 Norte 0 1005.5 -- 76
2020-09-01 06:00:00 15.8 8 Norte 15 Norte 0 1005.6 -- 76
2020-09-01 05:00:00 16.4 11 Norte 15 Norte 0 1006.3 -- 75
2020-09-01 04:00:00 17.3 12 Norte 17 Norte 0 1006.7 -- 72
2020-09-01 03:00:00 17.2 13 Norte 17 Norte 0 1007.3 -- 75
2020-09-01 02:00:00 18 13 Norte 17 Norte 0 1007.8 -- 72
2020-09-01 01:00:00 18.6 10 Norte 17 Norte 0 1008.1 -- 70
2020-09-01 00:00:00 18.3 10 Norte 17 Nordeste 0 1008.1 -- 72
2020-08-31 23:00:00 18.6 6 Nordeste 11 Nordeste 0 1007.9 -- 74
2020-08-31 22:00:00 19.3 5 Oeste 11 Noroeste 0 1007.8 -- 70
2020-08-31 21:00:00 -- 8 Sudoeste 15 Oeste 0 1007.3 -- --
2020-08-31 20:00:00 22.6 12 Sudoeste 26 Sudoeste 0 1007.2 -- 52
2020-08-31 19:00:00 24.3 19 Sudoeste 28 Sur 0 1007.2 -- 46
2020-08-31 18:00:00 25.3 18 Sur 30 Sur 0 1007.2 -- 39
2020-08-31 17:00:00 26.6 20 Sur 32 Sudoeste 0 1007.3 -- 33
2020-08-31 16:00:00 27.9 19 Sur 30 Sudoeste 0 1007.3 -- 27
2020-08-31 15:00:00 28.2 14 Sudoeste 32 Oeste 0 1008.2 -- 24
2020-08-31 14:00:00 26.7 22 Sudoeste 33 Oeste 0 1008.9 -- 26
2020-08-31 13:00:00 26.2 16 Sudoeste 30 Sudoeste 0 1009.6 -- 31
2020-08-31 12:00:00 24.3 15 Oeste 33 Oeste 0 1010 -- 34
2020-08-31 11:00:00 22.3 23 Oeste 32 Oeste 0 1010.1 -- 39
2020-08-31 10:00:00 20.1 6 Norte 32 Oeste 0 1009.8 -- 48
2020-08-31 09:00:00 17.4 18 Noroeste 42 Oeste 0 1009.4 -- 55
2020-08-31 08:00:00 15.8 13 Oeste 35 Oeste 0 1008.8 -- 60
2020-08-31 07:00:00 15.3 29 Oeste 42 Oeste 0 1008.5 -- 61
2020-08-31 06:00:00 15.7 26 Oeste 37 Noroeste 0 1008.4 -- 61
2020-08-31 05:00:00 15.9 23 Oeste 35 Noroeste 0 1008.3 -- 62
2020-08-31 04:00:00 16.1 18 Oeste 26 Oeste 0 1008.5 -- 64
2020-08-31 03:00:00 15.8 12 Oeste 24 Oeste 0.6 1008.8 -- 70
2020-08-31 02:00:00 16.8 10 Sudeste 32 Sur 5.9 1008.5 -- 81
2020-08-31 01:00:00 20.2 5 Sudeste 15 Este 0 1007.8 -- 47
2020-08-31 00:00:00 20.1 9 Noroeste 17 Norte 0 1007.4 -- 48
2020-08-30 23:00:00 20.4 12 Norte 17 Norte 0 1007 -- 50
2020-08-30 22:00:00 20.7 13 Noroeste 30 Norte 0 1006.2 -- 43
2020-08-30 21:00:00 22.1 18 Oeste 33 Oeste 0 1005 -- 36
2020-08-30 20:00:00 24.7 21 Oeste 33 Oeste 0 1004 -- 29
2020-08-30 19:00:00 26.8 17 Oeste 33 Oeste 0 1003.4 -- 25
2020-08-30 18:00:00 28 17 Oeste 30 Oeste 0 1003 -- 23
2020-08-30 17:00:00 28.1 18 Oeste 32 Oeste 0 1003.1 -- 24
2020-08-30 16:00:00 27.8 17 Sudoeste 35 Oeste 0 1003.4 -- 25
2020-08-30 15:00:00 26.7 18 Oeste 37 Oeste 0 1003.7 -- 27
2020-08-30 14:00:00 25.7 24 Oeste 37 Oeste 0 1003.9 -- 30
2020-08-30 13:00:00 24.3 30 Oeste 45 Oeste 0 1004 -- 32
2020-08-30 12:00:00 22.9 28 Oeste 41 Oeste 0 1004 -- 36
2020-08-30 11:00:00 21.2 25 Oeste 35 Oeste 0 1004 -- 42
2020-08-30 10:00:00 19.4 22 Oeste 41 Oeste 0 1002.9 -- 47
2020-08-30 09:00:00 17 30 Oeste 42 Oeste 0 1002.1 -- 54
2020-08-30 08:00:00 15.8 21 Oeste 35 Oeste 0 1001.4 -- 60
2020-08-30 07:00:00 15.2 23 Oeste 39 Oeste 0 1000.9 -- 64
2020-08-30 06:00:00 15.6 30 Oeste 42 Oeste 0 1000.6 -- 64
2020-08-30 05:00:00 16 23 Oeste 42 Oeste 0 999.8 -- 64
2020-08-30 04:00:00 16.6 29 Oeste 42 Oeste 0 999.3 -- 63
2020-08-30 03:00:00 17 23 Oeste 46 Oeste 0 999.2 -- 60
2020-08-30 02:00:00 17.6 23 Oeste 35 Oeste 0 999.1 -- 56
2020-08-30 01:00:00 17.3 25 Oeste 33 Oeste 0 999.1 -- 62
2020-08-30 00:00:00 17.1 3 Noroeste 13 Oeste 0 998.8 -- 87
2020-08-29 23:00:00 17.7 10 Norte 15 Noroeste 0 998.4 -- 86
2020-08-29 22:00:00 18.7 0 Calma 9 Norte 0 997.6 -- 81
2020-08-29 21:00:00 19.6 0 Calma 11 Este 0 996.8 -- 73
2020-08-29 20:00:00 21.2 8 Sudeste 17 Este 0 996.4 -- 63
2020-08-29 19:00:00 22.7 12 Este 18 Sudeste 0 995.7 -- 55
2020-08-29 18:00:00 22.2 11 Sudeste 26 Sudeste 0 995.4 -- 53
2020-08-29 17:00:00 23 10 Sudeste 15 Sudeste 0 995.7 -- 58
2020-08-29 16:00:00 20.7 6 Sudoeste 33 Oeste 0.8 995.9 -- 67
2020-08-29 15:00:00 25 5 Sudeste 21 Oeste 0 995.4 -- 34
2020-08-29 14:00:00 24.5 8 Nordeste 17 Nordeste 0 995.4 -- 38
2020-08-29 13:00:00 22.6 5 Nordeste 21 Oeste 0 996.1 -- 42
2020-08-29 12:00:00 21.7 17 Oeste 33 Oeste 0 996.4 -- 46
2020-08-29 11:00:00 19.3 23 Oeste 35 Oeste 0 996.5 -- 54
2020-08-29 10:00:00 18.9 22 Oeste 32 Oeste 0 996.3 -- 58
2020-08-29 09:00:00 18.4 14 Noroeste 30 Oeste 0 996.1 -- 71
2020-08-29 08:00:00 18 19 Oeste 32 Oeste 0 996.1 -- 63
2020-08-29 07:00:00 18.4 13 Noroeste 22 Noroeste 0 995.7 -- 65
2020-08-29 06:00:00 18.2 18 Oeste 24 Oeste 0 995.3 -- 65
2020-08-29 05:00:00 18.2 17 Noroeste 24 Noroeste 0 995.6 -- 72
2020-08-29 04:00:00 17.8 13 Oeste 18 Oeste 1.4 996.2 -- 80
2020-08-29 03:00:00 17.5 10 Oeste 21 Oeste 3.2 996.9 -- 83
2020-08-29 02:00:00 19.6 14 Noroeste 26 Noroeste 2.2 996.7 -- 91
2020-08-29 01:00:00 20.5 18 Sudeste 32 Sudeste 11.2 996.2 -- 92
2020-08-29 00:00:00 22.1 7 Sudoeste 21 Noroeste 22.1 996 -- 84
2020-08-28 23:00:00 22.8 9 Norte 18 Norte 4.2 995.1 -- 87
2020-08-28 22:00:00 23.3 9 Noroeste 17 Noroeste 0 995.3 -- 76
2020-08-28 21:00:00 23.6 12 Nordeste 26 Norte 0 994.3 -- 76
2020-08-28 20:00:00 26.4 13 Sur 24 Sur 0 994.5 -- 76
2020-08-28 19:00:00 27.3 13 Sur 24 Sur 0 995.5 -- 71
2020-08-28 18:00:00 27.7 15 Sur 26 Sur 0 995.6 -- 69
2020-08-28 17:00:00 29.9 17 Sudeste 28 Sudeste 0 995.8 -- 61
2020-08-28 16:00:00 29.3 18 Sur 28 Sur 0 996.3 -- 62
2020-08-28 15:00:00 30.3 16 Sur 28 Sur 0 997.4 -- 58
2020-08-28 14:00:00 30 15 Sur 26 Sudeste 0 997.8 -- 56
2020-08-28 13:00:00 29.4 13 Sur 22 Sur 0 998.7 -- 57
2020-08-28 12:00:00 28.8 13 Sudeste 28 Sudeste 0 999.3 -- 60
2020-08-28 11:00:00 27.4 12 Sur 21 Sudeste 0 999.8 -- 68
2020-08-28 10:00:00 26.4 6 Nordeste 15 Nordeste 0 1000.1 -- 75
2020-08-28 09:00:00 26.1 9 Norte 15 Norte 0 1000.4 -- 76
2020-08-28 08:00:00 24 12 Norte 17 Norte 0 1000.7 -- 84
2020-08-28 07:00:00 23.4 10 Nordeste 13 Nordeste 0 1001 -- 88
2020-08-28 06:00:00 23.3 9 Norte 11 Norte 0 1001.5 -- 88
2020-08-28 05:00:00 23.5 8 Norte 11 Norte 0 1001.8 -- 87
2020-08-28 04:00:00 23.8 9 Norte 11 Norte 0 1002.3 -- 86
2020-08-28 03:00:00 23.8 9 Norte 11 Norte 0 1002.9 -- 86
2020-08-28 02:00:00 24.6 10 Norte 13 Norte 0 1003.5 -- 84
2020-08-28 01:00:00 25.4 6 Norte 9 Norte 0 1004.1 -- 80
2020-08-28 00:00:00 25.4 0 Calma 8 Sur 0 1004.6 -- 81
2020-08-27 23:00:00 25.2 5 Sur 8 Sur 0 1004.8 -- 81
2020-08-27 22:00:00 26.1 5 Sur 13 Sur 0 1005 -- 78
2020-08-27 21:00:00 26.6 9 Sur 13 Sur 0 1004.6 -- 76
2020-08-27 20:00:00 27.2 9 Sudoeste 15 Sudoeste 0 1004.7 -- 73
2020-08-27 19:00:00 27.8 10 Sur 17 Sur 0 1005.2 -- 70
2020-08-27 18:00:00 28.4 10 Sur 22 Sur 0 1005.6 -- 70
2020-08-27 17:00:00 29.6 14 Sudeste 24 Sur 0 1005.9 -- 66
2020-08-27 16:00:00 31.1 14 Sudeste 24 Sudeste 0 1006.7 -- 56
2020-08-27 15:00:00 30.6 14 Sudeste 22 Sudeste 0 1007.4 -- 55
2020-08-27 14:00:00 31.6 14 Sur 22 Sur 0 1007.7 -- 56
2020-08-27 13:00:00 29.7 9 Sudeste 17 Sur 0 1008.3 -- 62
2020-08-27 12:00:00 28.5 8 Sur 15 Sur 0 1008.7 -- 64
2020-08-27 11:00:00 27.7 7 Sudeste 13 Sudeste 0 1008.7 -- 69
2020-08-27 10:00:00 28.3 5 Este 13 Este 0 1008.4 -- 69
2020-08-27 09:00:00 26.1 10 Norte 13 Norte 0 1008.4 -- 76
2020-08-27 08:00:00 23 9 Norte 13 Norte 0 1008.5 -- 87
2020-08-27 07:00:00 22.3 10 Norte 11 Norte 0 1008.3 -- 89
2020-08-27 06:00:00 22.5 -- -- -- -- 0 1008.2 -- 88
2020-08-27 05:00:00 22.7 9 Norte 11 Norte 0 1008.6 -- 87
2020-08-27 04:00:00 23.5 9 Norte 15 Norte 0 1009 -- 86
2020-08-27 03:00:00 24 12 Norte 15 Norte 0 1009.2 -- 85
2020-08-27 02:00:00 24.3 9 Norte 15 Norte 0 1009.4 -- 85
2020-08-27 01:00:00 25 7 Norte 9 Norte 0 1009.5 -- 83
2020-08-27 00:00:00 24.7 0 Calma -- -- 0 1009.6 -- 83
2020-08-26 23:00:00 24.9 7 Oeste 8 Oeste 0 1009.5 -- 85
2020-08-26 22:00:00 25.1 5 Sudoeste 11 Sudoeste 0 1009 -- 83
2020-08-26 21:00:00 26 8 Sudoeste 13 Sudoeste 0 1008.3 -- 78
2020-08-26 20:00:00 27.7 10 Sur 21 Sudoeste 0 1008.2 -- 71
2020-08-26 19:00:00 29.5 13 Sudoeste 21 Sudoeste 0 1008.3 -- 63
2020-08-26 18:00:00 30.8 12 Sur 22 Sudoeste 0 1008.5 -- 58
2020-08-26 17:00:00 32.2 15 Sudoeste 28 Sudoeste 0 1008.8 -- 53
2020-08-26 16:00:00 32.1 14 Sur 24 Sur 0 1008.9 -- 52
2020-08-26 15:00:00 31.3 13 Sur 22 Sur 0 1009.2 -- 54
2020-08-26 14:00:00 29.3 14 Sur 30 Sur 0 1009.8 -- 64
2020-08-26 13:00:00 29.8 14 Sudeste 26 Sudeste 0 1010.1 -- 62
2020-08-26 12:00:00 28.5 10 Sudoeste 17 Sudoeste 0 1010.4 -- 63
2020-08-26 11:00:00 28.4 2 Sur 9 Sudoeste 0 1010 -- 67
2020-08-26 10:00:00 27.6 2 Este 9 Nordeste 0 1009.7 -- 74
2020-08-26 09:00:00 26.3 7 Norte 13 Nordeste 0 1009.3 -- 75
2020-08-26 08:00:00 24.3 9 Norte 13 Norte 0 1009.1 -- 81
2020-08-26 07:00:00 23.4 7 Norte 13 Norte 0 1008.9 -- 84
2020-08-26 06:00:00 23.5 10 Norte 15 Norte 0 1008.6 -- 84
2020-08-26 05:00:00 23.4 12 Norte 15 Norte 0 1008.5 -- 84
2020-08-26 04:00:00 23.6 9 Norte 13 Nordeste 0 1008.6 -- 84
2020-08-26 03:00:00 23.9 5 Nordeste 9 Nordeste 0 1008.3 -- 84
2020-08-26 02:00:00 24.1 4 Norte 11 Norte 0 1008.3 -- 83
2020-08-26 01:00:00 24.4 6 Norte 15 Norte 0 1008.4 -- 83
2020-08-26 00:00:00 24.7 0 Calma 8 Sudoeste 0 1008.1 -- 81